FGBT

Bata Airport

Equatorial Guinea
METAR FGBT 160600Z 18004KT 9999 FEW010 24/24 Q1014
Observed Flight Rules
Jul-16 @ 06:00 UTC (55 minutes ago) Visual Flight Rules
Wind Visibility Clouds
180° at 4 knots 10,000+ meters
  • Few at 1,000' AGL
Temperatures Readings
Current 24°C / 75°F
Dewpoint 24°C / 75°F
Humidity 100%
Altimeter 29.94" Hg
Pressure 1014 hPa
Elevation 8
METAR FGBT 160600Z 18004KT 9999 FEW010 24/24 Q1014
Observed Flight Rules
Jul-16 @ 06:00 UTC
(55 minutes ago)
VFR
Wind Visibility
180° at 4 knots 10,000+ meters
Clouds
  • Few at 1,000' AGL
Temperature Dewpoint
24°C / 75°F 24°C / 75°F
Humidity Altimeter Pressure
100% 29.94" Hg 1014 hPa